Time;durP1;ratioP1;P1;durP2;ratioP2;P2;SDS_P1;SDS_P2;PMS_P1;PMS_P2;Temp;Humidity;BMP_temperature;BMP_pressure;BME280_temperature;BME280_humidity;BME280_pressure;Samples;Min_cycle;Max_cycle;Signal;HPM_P1;HPM_P2
2021/01/22 00:01:48;;;;;;;1.67;1.10;;;;;;;2.90;100.00;98057.47;5041650;28;20064;-53
2021/01/22 00:04:15;;;;;;;2.45;1.35;;;;;;;2.87;100.00;98060.47;5042697;28;21395;-52
2021/01/22 00:06:44;;;;;;;3.10;1.20;;;;;;;2.84;100.00;98060.84;5041484;28;20064;-53
2021/01/22 00:09:13;;;;;;;2.30;1.80;;;;;;;2.86;100.00;98083.38;5038436;28;20037;-53
2021/01/22 00:11:40;;;;;;;2.05;1.35;;;;;;;2.83;100.00;98082.94;5038692;28;20350;-53
2021/01/22 00:14:07;;;;;;;4.00;1.50;;;;;;;2.83;100.00;98104.00;5039798;28;20053;-52
2021/01/22 00:16:34;;;;;;;2.08;1.63;;;;;;;2.79;100.00;98093.00;5041652;28;20037;-52
2021/01/22 00:19:01;;;;;;;3.28;1.30;;;;;;;2.77;100.00;98095.00;5040923;28;20134;-52
2021/01/22 00:21:29;;;;;;;3.17;1.30;;;;;;;2.79;100.00;98089.56;5041764;28;20041;-52
2021/01/22 00:23:57;;;;;;;3.53;1.45;;;;;;;2.68;100.00;98096.91;5036129;28;20119;-52
2021/01/22 00:26:24;;;;;;;3.30;1.60;;;;;;;2.69;100.00;98108.25;5046749;28;20041;-53
2021/01/22 00:28:53;;;;;;;3.25;1.55;;;;;;;2.79;100.00;98118.53;5041283;28;20044;-54
2021/01/22 00:31:20;;;;;;;4.10;1.55;;;;;;;2.70;100.00;98115.97;5039154;28;20049;-54
2021/01/22 00:33:47;;;;;;;3.53;1.80;;;;;;;2.75;100.00;98131.25;5047553;28;20234;-51
2021/01/22 00:36:14;;;;;;;3.97;2.13;;;;;;;2.82;100.00;98134.84;5043855;28;20067;-54
2021/01/22 00:38:40;;;;;;;2.55;1.80;;;;;;;2.86;100.00;98151.91;5046295;28;20056;-53
2021/01/22 00:41:08;;;;;;;3.22;1.80;;;;;;;2.85;100.00;98152.94;5043056;28;20194;-54
2021/01/22 00:43:35;;;;;;;4.70;2.45;;;;;;;2.90;100.00;98173.47;5049524;28;20041;-54
2021/01/22 00:46:02;;;;;;;3.88;1.95;;;;;;;2.86;100.00;98173.00;5045142;28;20037;-54
2021/01/22 00:48:36;;;;;;;3.50;1.88;;;;;;;2.92;100.00;98172.31;5049267;28;20063;-52
2021/01/22 00:51:06;;;;;;;6.53;2.65;;;;;;;2.86;100.00;98166.91;5044046;28;20375;-51
2021/01/22 00:53:33;;;;;;;5.20;2.65;;;;;;;2.86;100.00;98178.25;5041705;28;20047;-54
2021/01/22 00:56:00;;;;;;;3.45;2.08;;;;;;;2.92;100.00;98187.28;5043790;28;20029;-52
2021/01/22 00:58:28;;;;;;;4.43;2.40;;;;;;;2.89;100.00;98190.28;5043990;28;20049;-55
2021/01/22 01:00:55;;;;;;;6.10;2.75;;;;;;;2.85;100.00;98192.47;5047049;28;20049;-54
2021/01/22 01:03:22;;;;;;;6.18;3.00;;;;;;;2.84;100.00;98184.75;5042606;28;20460;-53
2021/01/22 01:05:49;;;;;;;4.75;2.40;;;;;;;2.83;100.00;98185.72;5044463;28;20041;-53
2021/01/22 01:08:16;;;;;;;7.53;2.28;;;;;;;2.75;100.00;98189.22;5040255;28;20049;-52
2021/01/22 01:10:47;;;;;;;5.40;2.08;;;;;;;2.77;100.00;98191.72;5043748;28;20318;-53
2021/01/22 01:13:14;;;;;;;3.47;2.05;;;;;;;2.79;100.00;98192.34;5046158;28;20052;-54
2021/01/22 01:15:42;;;;;;;3.75;1.77;;;;;;;2.74;100.00;98195.53;5044054;28;20048;-52
2021/01/22 01:18:09;;;;;;;4.32;1.38;;;;;;;2.77;100.00;98208.34;5047954;28;20044;-51
2021/01/22 01:20:38;;;;;;;2.78;1.58;;;;;;;2.68;100.00;98212.00;5043390;28;20060;-53
2021/01/22 01:23:10;;;;;;;3.35;1.20;;;;;;;2.75;100.00;98208.53;5046035;28;20107;-51
2021/01/22 01:25:37;;;;;;;2.90;1.30;;;;;;;2.71;100.00;98207.22;5044126;28;20044;-52
2021/01/22 01:28:04;;;;;;;2.30;1.10;;;;;;;2.68;100.00;98220.75;5043032;28;20055;-54
2021/01/22 01:30:31;;;;;;;3.92;1.77;;;;;;;2.74;100.00;98224.50;5043625;28;20067;-52
2021/01/22 01:32:59;;;;;;;2.67;1.80;;;;;;;2.78;100.00;98238.13;5040762;28;20048;-49
2021/01/22 01:35:28;;;;;;;4.00;1.95;;;;;;;2.72;100.00;98234.41;5044898;28;20090;-52
2021/01/22 01:37:54;;;;;;;5.80;2.78;;;;;;;2.73;100.00;98236.84;5042671;28;20076;-53
2021/01/22 01:40:21;;;;;;;4.55;2.65;;;;;;;2.70;100.00;98242.47;5037713;28;20053;-50
2021/01/22 01:42:48;;;;;;;19.88;3.65;;;;;;;2.70;100.00;98242.47;5042981;28;20049;-53
2021/01/22 01:45:16;;;;;;;8.07;3.47;;;;;;;2.66;100.00;98241.19;5044093;28;20048;-52
2021/01/22 01:47:43;;;;;;;9.63;4.32;;;;;;;2.69;100.00;98247.94;5043453;28;20052;-52
2021/01/22 01:50:13;;;;;;;8.50;3.60;;;;;;;2.74;100.00;98254.31;5045785;28;20047;-52
2021/01/22 01:52:40;;;;;;;7.72;4.50;;;;;;;2.81;100.00;98261.50;5046445;28;20044;-54
2021/01/22 01:55:08;;;;;;;6.78;4.00;;;;;;;2.84;100.00;98266.47;5043837;28;20041;-50
2021/01/22 01:57:35;;;;;;;12.20;4.22;;;;;;;2.84;100.00;98266.47;5045569;28;20029;-51
2021/01/22 02:00:05;;;;;;;5.95;3.83;;;;;;;2.90;100.00;98268.38;5038042;28;20037;-52
2021/01/22 02:02:32;;;;;;;8.02;3.65;;;;;;;2.96;100.00;98266.84;5044394;28;20052;-53
2021/01/22 02:04:59;;;;;;;6.43;3.17;;;;;;;2.99;100.00;98258.59;5042090;28;20060;-52
2021/01/22 02:07:27;;;;;;;5.45;3.15;;;;;;;2.72;100.00;98269.50;5044381;28;20933;-53
2021/01/22 02:09:54;;;;;;;5.75;3.67;;;;;;;2.82;100.00;98276.34;5043803;28;20440;-53
2021/01/22 02:12:21;;;;;;;6.57;3.70;;;;;;;2.86;100.00;98259.19;5040527;28;20444;-52
2021/01/22 02:14:48;;;;;;;6.30;3.22;;;;;;;2.77;100.00;98262.88;5045648;28;20351;-52
2021/01/22 02:17:15;;;;;;;6.63;3.47;;;;;;;2.74;100.00;98248.22;5044690;28;20046;-52
2021/01/22 02:19:59;;;;;;;5.65;3.10;;;;;;;2.67;100.00;98261.28;5044127;28;20110;-56
2021/01/22 02:22:28;;;;;;;6.63;3.17;;;;;;;2.72;100.00;98268.66;5042583;28;20417;-53
2021/01/22 02:24:56;;;;;;;5.18;2.78;;;;;;;2.73;100.00;98273.75;5042734;28;20349;-54
2021/01/22 02:27:24;;;;;;;10.15;3.65;;;;;;;2.72;100.00;98284.47;5040916;28;20433;-54
2021/01/22 02:29:51;;;;;;;6.25;3.38;;;;;;;2.74;100.00;98290.41;5044104;28;20064;-51
2021/01/22 02:32:19;;;;;;;6.40;3.05;;;;;;;2.74;100.00;98291.22;5042858;28;20626;-51
2021/01/22 02:34:47;;;;;;;7.20;3.47;;;;;;;2.73;100.00;98288.75;5044204;28;20114;-53
2021/01/22 02:37:18;;;;;;;7.18;3.10;;;;;;;2.88;100.00;98291.47;5044785;28;20448;-52
2021/01/22 02:39:48;;;;;;;5.80;3.22;;;;;;;2.95;100.00;98291.56;5046132;28;20072;-50
2021/01/22 02:42:15;;;;;;;5.65;3.50;;;;;;;2.92;100.00;98298.00;5040300;28;20037;-52
2021/01/22 02:44:44;;;;;;;4.78;2.50;;;;;;;2.78;100.00;98296.13;5044763;28;20352;-52
2021/01/22 02:47:11;;;;;;;6.03;3.13;;;;;;;2.93;100.00;98303.13;5044423;28;20439;-51
2021/01/22 02:49:39;;;;;;;6.43;2.55;;;;;;;2.98;100.00;98304.41;5045320;28;20482;-51
2021/01/22 02:52:06;;;;;;;4.47;2.80;;;;;;;3.00;100.00;98300.59;5042345;28;20338;-53
2021/01/22 02:54:33;;;;;;;5.63;2.03;;;;;;;3.07;100.00;98300.72;5045116;28;20120;-53
2021/01/22 02:57:12;;;;;;;3.83;2.08;;;;;;;3.00;100.00;98313.78;5043842;28;20424;-52
2021/01/22 02:59:48;;;;;;;5.90;2.40;;;;;;;2.87;100.00;98321.47;5044877;28;20055;-51
2021/01/22 03:02:19;;;;;;;3.38;1.70;;;;;;;3.06;100.00;98322.81;5039434;28;20423;-53
2021/01/22 03:04:47;;;;;;;5.03;2.25;;;;;;;3.10;100.00;98326.72;5036791;28;20049;-52
2021/01/22 03:07:18;;;;;;;8.45;2.03;;;;;;;3.14;100.00;98327.22;5039560;28;20123;-51
2021/01/22 03:09:46;;;;;;;3.58;1.73;;;;;;;3.18;100.00;98337.22;5044905;28;20046;-53
2021/01/22 03:12:14;;;;;;;3.17;1.67;;;;;;;3.19;100.00;98340.69;5038928;28;20049;-54
2021/01/22 03:14:42;;;;;;;3.88;1.80;;;;;;;3.08;100.00;98340.09;5044467;28;20049;-55
2021/01/22 03:17:10;;;;;;;5.80;2.25;;;;;;;3.03;100.00;98342.44;5045400;28;20037;-53
2021/01/22 03:19:43;;;;;;;3.08;1.88;;;;;;;2.93;100.00;98331.28;5042848;28;20329;-55
2021/01/22 03:22:10;;;;;;;10.05;2.40;;;;;;;2.74;100.00;98341.28;5042279;28;20375;-52
2021/01/22 03:24:37;;;;;;;3.90;1.80;;;;;;;2.63;100.00;98346.94;5043757;28;20064;-55
2021/01/22 03:27:04;;;;;;;4.97;2.60;;;;;;;2.69;100.00;98340.97;5041036;28;20037;-55
2021/01/22 03:29:31;;;;;;;4.85;2.80;;;;;;;2.59;100.00;98335.09;5044083;28;20040;-54
2021/01/22 03:31:59;;;;;;;5.35;2.85;;;;;;;2.36;100.00;98346.41;5040193;28;20049;-54
2021/01/22 03:34:28;;;;;;;5.25;2.47;;;;;;;2.37;100.00;98355.97;5042750;28;20076;-52
2021/01/22 03:36:57;;;;;;;5.40;2.35;;;;;;;2.41;100.00;98361.72;5039437;28;20337;-54
2021/01/22 03:39:24;;;;;;;5.60;2.60;;;;;;;2.39;100.00;98369.75;5042316;28;20048;-54
2021/01/22 03:41:51;;;;;;;5.95;3.33;;;;;;;2.34;100.00;98363.38;5039021;28;20044;-54
2021/01/22 03:44:19;;;;;;;6.70;2.50;;;;;;;2.37;100.00;98363.84;5042969;28;20360;-54
2021/01/22 03:46:47;;;;;;;6.18;2.60;;;;;;;2.50;100.00;98365.13;5045765;28;20044;-55
2021/01/22 03:49:14;;;;;;;3.20;2.05;;;;;;;2.41;100.00;98367.78;5041315;28;20044;-54
2021/01/22 03:51:42;;;;;;;5.60;2.60;;;;;;;2.37;100.00;98371.75;5042052;28;20111;-55
2021/01/22 03:54:12;;;;;;;5.78;2.30;;;;;;;2.33;100.00;98374.91;5040691;28;20042;-54
2021/01/22 03:56:39;;;;;;;4.20;2.83;;;;;;;2.17;100.00;98376.59;5039699;28;20091;-54
2021/01/22 03:59:06;;;;;;;11.35;3.17;;;;;;;2.26;100.00;98366.88;5044152;28;20052;-55
2021/01/22 04:01:32;;;;;;;5.32;2.38;;;;;;;2.16;100.00;98371.50;5042789;28;20056;-54
2021/01/22 04:04:00;;;;;;;8.15;2.60;;;;;;;2.21;100.00;98374.44;5042124;28;20072;-55
2021/01/22 04:06:27;;;;;;;5.03;3.38;;;;;;;2.15;100.00;98378.56;5040382;28;20047;-53
2021/01/22 04:08:55;;;;;;;4.60;2.92;;;;;;;2.16;100.00;98379.41;5041984;28;20053;-53
2021/01/22 04:11:22;;;;;;;6.47;2.58;;;;;;;2.19;100.00;98386.97;5042145;28;20041;-53
2021/01/22 04:13:49;;;;;;;5.60;2.10;;;;;;;2.22;100.00;98390.06;5042989;28;20064;-53
2021/01/22 04:16:16;;;;;;;3.83;2.28;;;;;;;2.13;100.00;98385.00;5043227;28;20056;-54
2021/01/22 04:18:43;;;;;;;4.82;2.65;;;;;;;2.17;100.00;98396.84;5046088;28;20041;-57
2021/01/22 04:21:10;;;;;;;4.57;2.42;;;;;;;2.21;100.00;98396.34;5035792;28;20045;-55
2021/01/22 04:23:37;;;;;;;5.57;2.70;;;;;;;2.23;100.00;98398.81;5043112;28;20041;-54
2021/01/22 04:26:05;;;;;;;4.88;2.72;;;;;;;2.37;100.00;98405.19;5045087;28;20384;-55
2021/01/22 04:28:32;;;;;;;5.43;3.03;;;;;;;2.36;100.00;98400.91;5040603;28;20048;-53
2021/01/22 04:30:59;;;;;;;7.70;3.03;;;;;;;2.44;100.00;98408.78;5042458;28;20314;-53
2021/01/22 04:33:29;;;;;;;4.97;2.70;;;;;;;2.32;100.00;98407.50;5042791;28;20052;-54
2021/01/22 04:35:56;;;;;;;6.18;3.15;;;;;;;2.36;100.00;98409.63;5042912;28;20045;-54
2021/01/22 04:38:23;;;;;;;7.70;3.10;;;;;;;2.33;100.00;98409.97;5040324;28;20049;-53
2021/01/22 04:40:51;;;;;;;7.90;3.17;;;;;;;2.35;100.00;98399.25;5040461;28;20041;-55
2021/01/22 04:43:18;;;;;;;8.40;4.00;;;;;;;2.30;100.00;98401.59;5041483;28;20123;-55
2021/01/22 04:45:45;;;;;;;11.43;3.60;;;;;;;2.38;100.00;98402.38;5044373;28;20049;-53
2021/01/22 04:48:14;;;;;;;9.25;3.58;;;;;;;2.43;100.00;98406.34;5042329;28;20055;-54
2021/01/22 04:50:42;;;;;;;5.03;2.65;;;;;;;2.40;100.00;98405.66;5042028;28;20072;-53
2021/01/22 04:53:10;;;;;;;7.65;2.50;;;;;;;2.23;100.00;98409.34;5041590;28;20041;-53
2021/01/22 04:55:41;;;;;;;4.72;3.00;;;;;;;2.24;100.00;98411.00;5043751;28;20056;-55
2021/01/22 04:58:10;;;;;;;5.82;3.05;;;;;;;2.27;100.00;98413.28;5043770;28;20053;-55
2021/01/22 05:00:39;;;;;;;5.35;2.60;;;;;;;2.28;100.00;98400.94;5040635;28;20053;-53
2021/01/22 05:03:07;;;;;;;8.77;3.50;;;;;;;2.31;100.00;98406.69;5046478;28;20123;-53
2021/01/22 05:05:35;;;;;;;6.88;2.80;;;;;;;2.26;100.00;98414.28;5042816;28;20070;-51
2021/01/22 05:08:02;;;;;;;5.50;3.03;;;;;;;2.23;100.00;98414.59;5043098;28;21181;-52
2021/01/22 05:10:29;;;;;;;6.28;2.75;;;;;;;2.28;100.00;98420.19;5043430;28;20037;-52
2021/01/22 05:12:56;;;;;;;5.93;2.72;;;;;;;2.31;100.00;98406.69;5039975;28;20041;-53
2021/01/22 05:15:25;;;;;;;8.55;3.05;;;;;;;2.44;100.00;98415.84;5042870;28;20360;-53
2021/01/22 05:18:00;;;;;;;4.32;2.83;;;;;;;2.33;100.00;98414.44;5047154;28;20428;-51
2021/01/22 05:20:35;;;;;;;8.02;3.45;;;;;;;2.31;100.00;98417.22;5044871;28;20049;-53
2021/01/22 05:23:05;;;;;;;7.35;3.78;;;;;;;2.32;100.00;98415.41;5048010;28;20045;-52
2021/01/22 05:25:33;;;;;;;8.45;3.70;;;;;;;2.31;100.00;98416.38;5047150;28;20049;-53
2021/01/22 05:28:00;;;;;;;6.55;3.33;;;;;;;2.39;100.00;98419.00;5045535;28;20353;-53
2021/01/22 05:30:30;;;;;;;5.22;3.42;;;;;;;2.27;100.00;98418.56;5040615;28;20606;-53
2021/01/22 05:33:16;;;;;;;9.00;3.53;;;;;;;2.18;100.00;98417.75;5046436;28;20077;-52
2021/01/22 05:35:43;;;;;;;8.52;3.90;;;;;;;2.23;100.00;98419.88;5045279;28;20049;-53
2021/01/22 05:38:10;;;;;;;10.07;3.42;;;;;;;2.28;100.00;98422.81;5044379;28;20029;-53
2021/01/22 05:40:37;;;;;;;17.75;3.50;;;;;;;2.36;100.00;98424.63;5044916;28;20360;-54
2021/01/22 05:43:04;;;;;;;6.93;3.42;;;;;;;2.29;100.00;98427.09;5045686;28;20041;-53
2021/01/22 05:45:42;;;;;;;9.05;3.30;;;;;;;2.30;100.00;98420.84;5044423;28;20041;-53
2021/01/22 05:48:20;;;;;;;11.13;4.15;;;;;;;2.33;100.00;98417.06;5045308;28;20044;-51
2021/01/22 05:50:49;;;;;;;7.93;3.20;;;;;;;2.34;100.00;98429.22;5044276;28;20040;-53
2021/01/22 05:53:19;;;;;;;5.65;3.25;;;;;;;2.12;100.00;98428.94;5049698;28;20045;-52
2021/01/22 05:56:05;;;;;;;9.65;3.42;;;;;;;2.11;100.00;98445.72;5046327;28;20048;-54
2021/01/22 05:58:31;;;;;;;8.53;3.53;;;;;;;2.17;100.00;98441.59;5042233;28;20041;-56
2021/01/22 06:01:08;;;;;;;5.88;3.47;;;;;;;2.27;100.00;98449.31;5043539;28;20045;-54
2021/01/22 06:03:38;;;;;;;7.03;3.53;;;;;;;2.21;100.00;98453.44;5046235;28;20369;-53
2021/01/22 06:06:06;;;;;;;7.93;3.75;;;;;;;2.18;100.00;98453.78;5045038;28;20053;-53
2021/01/22 06:08:33;;;;;;;8.20;3.33;;;;;;;2.19;100.00;98456.25;5049784;28;20045;-53
2021/01/22 06:11:01;;;;;;;10.75;3.33;;;;;;;2.10;100.00;98459.06;5041973;28;20040;-53
2021/01/22 06:13:30;;;;;;;7.00;3.13;;;;;;;2.15;100.00;98456.75;5039931;28;20053;-51
2021/01/22 06:15:58;;;;;;;7.70;2.88;;;;;;;2.16;100.00;98450.50;5046332;28;20048;-54
2021/01/22 06:18:30;;;;;;;9.80;3.25;;;;;;;2.23;100.00;98462.81;5044539;28;20509;-53
2021/01/22 06:21:09;;;;;;;6.22;3.22;;;;;;;2.26;100.00;98469.56;5042238;28;20353;-53
2021/01/22 06:23:36;;;;;;;8.63;3.47;;;;;;;2.33;100.00;98475.00;5046994;28;20045;-54
2021/01/22 06:26:04;;;;;;;7.97;3.70;;;;;;;2.25;100.00;98473.19;5046550;28;20048;-53
2021/01/22 06:28:32;;;;;;;5.25;3.05;;;;;;;2.26;100.00;98472.22;5045424;28;20053;-53
2021/01/22 06:30:59;;;;;;;6.28;3.58;;;;;;;2.21;100.00;98478.00;5048058;28;20053;-53
2021/01/22 06:33:28;;;;;;;6.85;2.67;;;;;;;2.32;100.00;98471.53;5042088;28;20045;-53
2021/01/22 06:35:55;;;;;;;8.40;3.00;;;;;;;2.22;100.00;98476.16;5043189;28;20049;-51
2021/01/22 06:38:23;;;;;;;8.13;2.80;;;;;;;2.20;100.00;98483.44;5046372;28;20321;-52
2021/01/22 06:40:51;;;;;;;10.98;3.95;;;;;;;2.22;100.00;98478.78;5044927;28;20041;-53
2021/01/22 06:43:21;;;;;;;7.30;2.80;;;;;;;2.19;100.00;98484.41;5046912;28;20044;-52
2021/01/22 06:45:48;;;;;;;5.38;3.10;;;;;;;2.18;100.00;98486.22;5046812;28;20045;-52
2021/01/22 06:48:15;;;;;;;5.60;2.67;;;;;;;2.24;100.00;98487.38;5042294;28;20037;-53
2021/01/22 06:50:42;;;;;;;7.90;3.20;;;;;;;2.13;100.00;98488.53;5045983;28;20135;-53
2021/01/22 06:53:13;;;;;;;11.80;3.72;;;;;;;2.06;100.00;98487.53;5046419;28;20368;-51
2021/01/22 06:56:11;;;;;;;21.33;3.92;;;;;;;2.24;100.00;98495.28;5040802;28;20057;-53
2021/01/22 06:58:38;;;;;;;9.32;3.60;;;;;;;2.32;100.00;98507.59;5000271;28;20376;-53
2021/01/22 07:01:32;;;;;;;6.43;3.65;;;;;;;2.19;100.00;98510.75;5038138;28;20349;-51
2021/01/22 07:04:00;;;;;;;9.25;5.05;;;;;;;1.98;100.00;98517.31;5048685;28;20060;-52
2021/01/22 07:06:50;;;;;;;8.15;3.20;;;;;;;1.94;100.00;98525.69;5041668;28;20040;-54
2021/01/22 07:09:17;;;;;;;8.85;3.20;;;;;;;1.89;100.00;98526.19;5046230;28;20049;-53
2021/01/22 07:11:58;;;;;;;6.93;2.88;;;;;;;1.78;100.00;98537.03;5040804;28;20119;-54
2021/01/22 07:14:42;;;;;;;11.40;3.78;;;;;;;1.82;100.00;98546.28;5049295;28;20049;-55
2021/01/22 07:17:19;;;;;;;7.47;3.70;;;;;;;1.83;100.00;98540.84;5046826;28;20038;-53
2021/01/22 07:19:52;;;;;;;9.70;4.95;;;;;;;1.78;100.00;98540.50;5044634;28;20447;-54
2021/01/22 07:22:19;;;;;;;12.60;4.18;;;;;;;1.70;100.00;98551.84;5041373;28;20207;-56
2021/01/22 07:24:51;;;;;;;8.13;4.28;;;;;;;1.79;100.00;98554.50;5043898;28;20095;-54
2021/01/22 07:27:20;;;;;;;9.35;3.90;;;;;;;1.67;100.00;98556.59;5044876;28;20053;-54
2021/01/22 07:30:12;;;;;;;6.22;3.80;;;;;;;1.78;100.00;98550.22;5040373;28;20421;-53
2021/01/22 07:32:39;;;;;;;13.02;5.07;;;;;;;1.90;100.00;98556.81;5044296;28;20052;-53
2021/01/22 07:35:08;;;;;;;9.48;4.43;;;;;;;1.82;100.00;98554.16;5051046;28;20099;-52
2021/01/22 07:37:37;;;;;;;9.07;4.10;;;;;;;1.91;100.00;98563.69;5041488;28;20041;-53
2021/01/22 07:40:08;;;;;;;6.85;3.80;;;;;;;2.02;100.00;98555.50;5044177;28;20044;-53
2021/01/22 07:42:36;;;;;;;14.98;5.00;;;;;;;2.10;100.00;98556.47;5045425;28;20329;-52
2021/01/22 07:45:11;;;;;;;8.65;4.43;;;;;;;2.02;100.00;98567.84;5046435;28;20448;-53
2021/01/22 07:47:40;;;;;;;15.13;4.53;;;;;;;2.06;100.00;98571.78;5043985;28;20045;-51
2021/01/22 07:50:09;;;;;;;8.48;4.18;;;;;;;2.03;100.00;98575.56;5041989;28;20077;-54
2021/01/22 07:52:38;;;;;;;13.40;4.60;;;;;;;1.90;100.00;98572.59;5043558;28;20135;-54
2021/01/22 07:55:06;;;;;;;6.65;3.92;;;;;;;2.00;100.00;98572.44;5043098;28;20112;-53
2021/01/22 07:57:33;;;;;;;8.68;4.55;;;;;;;2.01;100.00;98582.81;5044706;28;20052;-54
2021/01/22 08:00:08;;;;;;;10.02;4.70;;;;;;;2.04;100.00;98589.53;5043702;28;20045;-51
2021/01/22 08:02:34;;;;;;;8.85;4.63;;;;;;;1.92;100.00;98591.69;5043235;28;20064;-55
2021/01/22 08:05:08;;;;;;;9.00;4.68;;;;;;;1.82;100.00;98597.09;5045552;28;20045;-53
2021/01/22 08:07:37;;;;;;;9.85;4.93;;;;;;;1.93;100.00;98593.34;5046493;28;20298;-53
2021/01/22 08:10:09;;;;;;;12.75;4.50;;;;;;;2.03;100.00;98604.53;5043408;28;20048;-53
2021/01/22 08:12:36;;;;;;;11.20;5.70;;;;;;;2.03;100.00;98615.06;5045210;28;20045;-54
2021/01/22 08:15:18;;;;;;;15.95;6.35;;;;;;;2.01;100.00;98622.31;5041990;28;20151;-53
2021/01/22 08:17:45;;;;;;;13.18;6.05;;;;;;;2.03;100.00;98622.97;5044684;28;20033;-53
2021/01/22 08:20:13;;;;;;;14.05;6.30;;;;;;;1.94;100.00;98621.28;5041462;28;20041;-54
2021/01/22 08:22:40;;;;;;;10.65;4.85;;;;;;;1.96;100.00;98623.78;5044881;28;20240;-54
2021/01/22 08:25:08;;;;;;;8.45;5.00;;;;;;;1.96;100.00;98635.13;5042102;28;20064;-53
2021/01/22 08:27:35;;;;;;;13.02;5.60;;;;;;;1.98;100.00;98640.22;5043443;28;24256;-54
2021/01/22 08:30:04;;;;;;;12.35;4.78;;;;;;;2.04;100.00;98645.69;5042396;28;20310;-52
2021/01/22 08:32:32;;;;;;;7.80;5.35;;;;;;;2.12;100.00;98644.06;5042485;28;20471;-53
2021/01/22 08:34:59;;;;;;;13.82;5.22;;;;;;;2.08;100.00;98642.72;5050429;28;20047;-54
2021/01/22 08:37:28;;;;;;;9.48;4.45;;;;;;;1.98;100.00;98654.22;5041916;28;20163;-55
2021/01/22 08:39:58;;;;;;;8.57;4.28;;;;;;;2.10;100.00;98657.38;5039089;28;20425;-53
2021/01/22 08:42:26;;;;;;;9.65;5.18;;;;;;;2.20;100.00;98654.59;5041144;28;20052;-52
2021/01/22 08:44:58;;;;;;;11.07;4.55;;;;;;;2.29;100.00;98656.25;5041270;28;20049;-53
2021/01/22 08:47:26;;;;;;;9.90;4.80;;;;;;;2.30;100.00;98663.16;5045094;28;20045;-54
2021/01/22 08:49:59;;;;;;;13.02;5.10;;;;;;;2.35;100.00;98660.88;5041404;28;20906;-52
2021/01/22 08:52:28;;;;;;;9.05;4.63;;;;;;;2.49;100.00;98669.13;5042593;28;20053;-54
2021/01/22 08:54:57;;;;;;;11.07;4.75;;;;;;;2.43;100.00;98677.69;5047220;28;20045;-51
2021/01/22 08:57:26;;;;;;;7.50;4.22;;;;;;;2.48;100.00;98668.31;5044436;28;20451;-52
2021/01/22 08:59:56;;;;;;;8.50;4.28;;;;;;;2.45;100.00;98675.69;5045682;28;20130;-54
2021/01/22 09:02:40;;;;;;;7.53;4.32;;;;;;;2.54;100.00;98674.72;5043745;28;20396;-53
2021/01/22 09:05:13;;;;;;;8.05;5.20;;;;;;;2.53;100.00;98675.72;5042493;28;20045;-50
2021/01/22 09:07:40;;;;;;;10.05;4.57;;;;;;;2.55;100.00;98686.91;5043534;28;20041;-53
2021/01/22 09:10:26;;;;;;;8.85;4.57;;;;;;;2.61;100.00;98690.69;5042671;28;20037;-53
2021/01/22 09:12:53;;;;;;;8.35;4.65;;;;;;;2.62;100.00;98693.16;5049834;28;20057;-53
2021/01/22 09:15:23;;;;;;;12.50;4.68;;;;;;;2.54;100.00;98704.53;5045101;28;20049;-54
2021/01/22 09:17:55;;;;;;;7.97;5.13;;;;;;;2.57;100.00;98709.47;5045194;28;20136;-54
2021/01/22 09:20:26;;;;;;;11.05;5.65;;;;;;;2.62;100.00;98714.25;5044834;28;20356;-53
2021/01/22 09:22:55;;;;;;;9.85;5.60;;;;;;;2.56;100.00;98714.91;5047326;28;20056;-54
2021/01/22 09:25:23;;;;;;;13.98;6.00;;;;;;;2.70;100.00;98716.91;5044729;28;20377;-54
2021/01/22 09:27:50;;;;;;;6.05;4.20;;;;;;;2.89;100.00;98717.56;5045158;28;20041;-53
2021/01/22 09:30:19;;;;;;;9.75;4.80;;;;;;;2.96;100.00;98726.44;5038853;28;20060;-52
2021/01/22 09:32:47;;;;;;;10.32;5.05;;;;;;;2.85;100.00;98737.31;5040937;28;20058;-52
2021/01/22 09:35:15;;;;;;;12.90;4.38;;;;;;;2.92;100.00;98733.03;5047709;28;20421;-55
2021/01/22 09:37:43;;;;;;;9.98;4.22;;;;;;;3.08;100.00;98737.50;5042370;28;20041;-53
2021/01/22 09:40:10;;;;;;;10.43;4.18;;;;;;;3.22;100.00;98741.31;5046339;28;20060;-52
2021/01/22 09:42:38;;;;;;;8.10;4.72;;;;;;;3.41;100.00;98753.31;5046494;28;20053;-52
2021/01/22 09:45:07;;;;;;;6.43;4.05;;;;;;;3.57;100.00;98755.91;5044489;28;20042;-53
2021/01/22 09:47:37;;;;;;;9.75;4.10;;;;;;;3.45;100.00;98758.06;5047778;28;20274;-52
2021/01/22 09:50:07;;;;;;;6.93;3.80;;;;;;;3.38;100.00;98749.19;5047544;28;20032;-53
2021/01/22 09:52:36;;;;;;;12.10;4.43;;;;;;;3.38;100.00;98751.81;5044898;28;20071;-51
2021/01/22 09:55:05;;;;;;;10.93;5.07;;;;;;;3.58;100.00;98757.53;5048176;28;20047;-54
2021/01/22 09:57:34;;;;;;;7.35;5.10;;;;;;;3.72;100.00;98755.22;5048092;28;20082;-51
2021/01/22 10:00:05;;;;;;;9.85;5.03;;;;;;;3.78;100.00;98760.66;5045684;28;24008;-51
2021/01/22 10:02:32;;;;;;;12.85;4.82;;;;;;;3.65;100.00;98751.63;5040661;28;20057;-51
2021/01/22 10:05:00;;;;;;;10.38;5.15;;;;;;;3.63;100.00;98754.44;5047761;28;20037;-52
2021/01/22 10:07:29;;;;;;;11.38;6.28;;;;;;;3.65;100.00;98757.72;5045233;28;20051;-54
2021/01/22 10:09:56;;;;;;;8.98;4.50;;;;;;;3.95;100.00;98763.22;5047411;28;20037;-51
2021/01/22 10:12:24;;;;;;;11.25;5.65;;;;;;;4.11;100.00;98768.47;5040927;28;20145;-54
2021/01/22 10:14:50;;;;;;;9.23;5.05;;;;;;;3.81;100.00;98771.88;5045552;28;20041;-52
2021/01/22 10:17:17;;;;;;;12.85;5.68;;;;;;;4.20;99.54;98779.00;5047275;28;20041;-54
2021/01/22 10:19:45;;;;;;;8.38;4.65;;;;;;;4.00;99.45;98781.19;5043102;28;20044;-52
2021/01/22 10:22:12;;;;;;;10.85;6.70;;;;;;;4.28;98.84;98789.50;5044273;28;20052;-53
2021/01/22 10:24:39;;;;;;;11.35;4.90;;;;;;;4.52;98.50;98788.56;5047657;28;20170;-54
2021/01/22 10:27:07;;;;;;;12.00;5.47;;;;;;;4.79;97.44;98784.63;5048160;28;20033;-53
2021/01/22 10:29:35;;;;;;;9.60;4.65;;;;;;;5.32;95.91;98791.84;5044522;28;20040;-52
2021/01/22 10:32:02;;;;;;;14.45;6.30;;;;;;;4.97;95.08;98796.72;5044733;28;20052;-54
2021/01/22 10:34:29;;;;;;;9.43;4.53;;;;;;;4.85;95.22;98798.13;5049302;28;20379;-53
2021/01/22 10:36:56;;;;;;;10.70;3.88;;;;;;;4.91;93.91;98800.91;5046829;28;20049;-53
2021/01/22 10:39:23;;;;;;;8.55;4.22;;;;;;;5.30;93.11;98793.81;5045885;28;20045;-52
2021/01/22 10:41:50;;;;;;;8.50;4.30;;;;;;;5.26;92.73;98805.75;5041396;28;20063;-54
2021/01/22 10:44:17;;;;;;;8.90;3.85;;;;;;;5.22;92.22;98807.97;5047720;28;20335;-55
2021/01/22 10:46:45;;;;;;;8.85;4.05;;;;;;;5.32;92.16;98807.72;5046655;28;20056;-53
2021/01/22 10:49:12;;;;;;;8.77;3.88;;;;;;;5.15;92.45;98810.47;5048940;28;20041;-53
2021/01/22 10:51:39;;;;;;;8.63;4.75;;;;;;;5.25;91.26;98812.88;5046125;28;20060;-50
2021/01/22 10:54:07;;;;;;;10.43;4.07;;;;;;;5.05;91.29;98812.56;5046348;28;20059;-50
2021/01/22 10:56:34;;;;;;;11.25;3.65;;;;;;;5.04;91.19;98810.91;5044326;28;20040;-53
2021/01/22 10:59:00;;;;;;;8.07;3.50;;;;;;;4.64;92.28;98818.91;5044472;28;20096;-54
2021/01/22 11:01:28;;;;;;;9.15;3.90;;;;;;;4.61;91.68;98824.56;5040951;28;20064;-54
2021/01/22 11:03:56;;;;;;;8.27;3.65;;;;;;;5.09;91.03;98819.13;5045832;28;20072;-53
2021/01/22 11:06:23;;;;;;;5.57;3.58;;;;;;;4.99;89.96;98819.38;5043666;28;20048;-52
2021/01/22 11:08:50;;;;;;;5.07;3.35;;;;;;;5.03;90.48;98819.81;5041807;28;20357;-52
2021/01/22 11:11:17;;;;;;;11.88;4.63;;;;;;;5.09;90.30;98826.22;5042194;28;20348;-54
2021/01/22 11:13:44;;;;;;;6.75;3.88;;;;;;;4.89;91.39;98828.53;5044521;28;20291;-53
2021/01/22 11:16:11;;;;;;;12.43;4.00;;;;;;;5.10;90.82;98836.66;5043842;28;20041;-54
2021/01/22 11:18:38;;;;;;;6.68;3.03;;;;;;;4.96;89.73;98837.41;5045368;28;20080;-54
2021/01/22 11:21:06;;;;;;;7.00;3.35;;;;;;;5.15;89.73;98836.94;5040060;28;20041;-53
2021/01/22 11:23:33;;;;;;;10.52;3.90;;;;;;;5.11;89.82;98830.34;5047003;28;20045;-53
2021/01/22 11:26:00;;;;;;;8.30;3.65;;;;;;;4.99;90.62;98835.25;5044868;28;20037;-53
2021/01/22 11:28:28;;;;;;;15.32;4.03;;;;;;;4.99;90.69;98829.94;5043602;28;20041;-54
2021/01/22 11:30:54;;;;;;;9.55;3.75;;;;;;;5.24;90.67;98832.41;5028267;28;20432;-55
2021/01/22 11:33:21;;;;;;;7.93;3.35;;;;;;;5.20;88.94;98825.81;5041908;28;20433;-53
2021/01/22 11:35:48;;;;;;;7.07;3.63;;;;;;;5.02;89.13;98830.59;5044225;28;20064;-53
2021/01/22 11:38:16;;;;;;;9.20;3.75;;;;;;;4.85;90.25;98824.56;5044259;28;20987;-52
2021/01/22 11:40:43;;;;;;;8.02;3.80;;;;;;;4.77;90.34;98813.06;5044306;28;20437;-52